Time;durP1;ratioP1;P1;durP2;ratioP2;P2;SDS_P1;SDS_P2;PMS_P1;PMS_P2;Temp;Humidity;BMP_temperature;BMP_pressure;BME280_temperature;BME280_humidity;BME280_pressure;Samples;Min_cycle;Max_cycle;Signal;HPM_P1;HPM_P2
2022/03/27 00:01:34;;;;;;;54.97;36.10;;;16.40;71.10;;;;;;5048558;29;20082;-30
2022/03/27 00:04:05;;;;;;;67.37;43.33;;;16.40;71.10;;;;;;5047949;29;20099;-29
2022/03/27 00:06:36;;;;;;;80.63;53.20;;;16.40;71.30;;;;;;5046742;29;20053;-31
2022/03/27 00:09:07;;;;;;;111.05;75.97;;;16.40;71.10;;;;;;5047647;29;20060;-29
2022/03/27 00:11:38;;;;;;;132.37;89.93;;;16.40;71.20;;;;;;5047667;29;20049;-29
2022/03/27 00:14:09;;;;;;;130.82;87.55;;;16.40;71.30;;;;;;5047942;29;20049;-28
2022/03/27 00:16:41;;;;;;;134.60;91.05;;;16.40;71.40;;;;;;5048019;29;20041;-28
2022/03/27 00:19:11;;;;;;;123.87;83.80;;;16.40;72.40;;;;;;5047866;29;20555;-29
2022/03/27 00:21:44;;;;;;;113.45;76.03;;;16.40;71.80;;;;;;5047689;29;20092;-30
2022/03/27 00:24:15;;;;;;;94.68;63.47;;;16.40;71.90;;;;;;5047816;29;20127;-30
2022/03/27 00:26:46;;;;;;;86.33;56.03;;;16.40;72.00;;;;;;5015263;29;20523;-28
2022/03/27 00:29:18;;;;;;;78.93;50.30;;;16.40;72.20;;;;;;5050460;29;20053;-29
2022/03/27 00:31:49;;;;;;;72.13;48.67;;;16.40;72.40;;;;;;5050897;29;20045;-29
2022/03/27 00:34:21;;;;;;;70.17;44.90;;;16.40;72.60;;;;;;5051164;29;20452;-28
2022/03/27 00:36:52;;;;;;;57.78;37.35;;;16.40;72.60;;;;;;5051146;29;20132;-31
2022/03/27 00:39:23;;;;;;;47.13;31.73;;;16.40;72.70;;;;;;5050047;29;20136;-28
2022/03/27 00:41:54;;;;;;;45.53;30.83;;;16.30;72.70;;;;;;5051032;29;20057;-30
2022/03/27 00:44:25;;;;;;;50.67;32.37;;;16.30;72.70;;;;;;5051084;29;20488;-30
2022/03/27 00:46:58;;;;;;;48.07;32.67;;;16.40;72.70;;;;;;5051177;29;20045;-29
2022/03/27 00:49:29;;;;;;;48.83;31.20;;;16.30;72.60;;;;;;5051530;29;20080;-30
2022/03/27 00:52:00;;;;;;;40.30;26.87;;;16.30;72.60;;;;;;5048850;29;20140;-30
2022/03/27 00:54:31;;;;;;;34.60;23.97;;;16.30;72.60;;;;;;5051007;29;20444;-29
2022/03/27 00:57:02;;;;;;;30.47;20.10;;;16.30;72.60;;;;;;5050885;29;20060;-30
2022/03/27 00:59:33;;;;;;;29.48;19.35;;;16.30;72.60;;;;;;5051048;29;20048;-29
2022/03/27 01:02:04;;;;;;;25.97;17.77;;;16.30;72.50;;;;;;5050947;29;20041;-30
2022/03/27 01:04:35;;;;;;;24.55;15.75;;;16.30;72.70;;;;;;5050810;29;20104;-29
2022/03/27 01:07:06;;;;;;;23.27;15.07;;;16.30;72.70;;;;;;5050931;29;20503;-28
2022/03/27 01:09:37;;;;;;;21.13;14.40;;;16.30;72.50;;;;;;5049360;29;20074;-30
2022/03/27 01:12:14;;;;;;;30.27;17.73;;;16.30;72.50;;;;;;5049777;29;20049;-28
2022/03/27 01:14:45;;;;;;;30.38;20.38;;;16.30;72.30;;;;;;5049816;29;20049;-28
2022/03/27 01:17:18;;;;;;;34.40;22.83;;;16.30;72.40;;;;;;5050670;29;20049;-28
2022/03/27 01:19:51;;;;;;;30.48;19.75;;;16.30;72.50;;;;;;5050664;29;20491;-30
2022/03/27 01:22:22;;;;;;;34.33;20.10;;;16.30;72.70;;;;;;5050222;29;20129;-29
2022/03/27 01:24:53;;;;;;;27.93;18.37;;;16.30;72.80;;;;;;5049376;29;20069;-29
2022/03/27 01:27:24;;;;;;;29.80;18.53;;;16.20;72.80;;;;;;5049299;29;20049;-30
2022/03/27 01:29:56;;;;;;;30.93;18.67;;;16.30;73.00;;;;;;5049122;29;20049;-28
2022/03/27 01:32:27;;;;;;;36.33;21.90;;;16.20;73.00;;;;;;5050395;29;20423;-29
2022/03/27 01:34:58;;;;;;;34.00;23.17;;;16.20;73.10;;;;;;5049626;29;20059;-29
2022/03/27 01:37:29;;;;;;;30.70;20.02;;;16.20;73.10;;;;;;5050177;29;20076;-30
2022/03/27 01:40:00;;;;;;;30.27;19.83;;;16.20;73.20;;;;;;5049375;29;20440;-31
2022/03/27 01:42:31;;;;;;;33.10;20.93;;;16.20;73.20;;;;;;5049774;29;20075;-29
2022/03/27 01:45:03;;;;;;;39.10;25.00;;;16.20;73.30;;;;;;5049659;29;20065;-28
2022/03/27 01:47:34;;;;;;;40.27;25.83;;;16.20;73.60;;;;;;5048599;29;20053;-31
2022/03/27 01:50:06;;;;;;;38.53;24.83;;;16.20;73.50;;;;;;5049929;29;20131;-29
2022/03/27 01:52:37;;;;;;;36.57;23.80;;;16.20;73.70;;;;;;5047852;29;20537;-28
2022/03/27 01:55:10;;;;;;;35.80;22.37;;;16.20;73.40;;;;;;5049896;29;20077;-29
2022/03/27 01:57:42;;;;;;;35.53;22.80;;;16.20;73.30;;;;;;5049444;29;20086;-31
2022/03/27 02:00:14;;;;;;;41.40;24.73;;;16.20;73.10;;;;;;5049641;29;20045;-29
2022/03/27 02:02:46;;;;;;;41.93;25.03;;;16.20;72.80;;;;;;5049843;29;20499;-30
2022/03/27 02:05:16;;;;;;;40.53;25.70;;;16.20;72.70;;;;;;5049633;29;20073;-30
2022/03/27 02:07:48;;;;;;;38.93;24.20;;;16.10;72.50;;;;;;5050288;29;20045;-31
2022/03/27 02:10:18;;;;;;;40.70;25.80;;;16.10;72.50;;;;;;5049421;29;20079;-28
2022/03/27 02:12:50;;;;;;;47.13;28.40;;;16.10;72.50;;;;;;5048469;29;20097;-28
2022/03/27 02:15:20;;;;;;;41.00;26.03;;;16.10;72.30;;;;;;5049014;29;20053;-28
2022/03/27 02:17:52;;;;;;;47.07;30.40;;;16.10;72.20;;;;;;5049388;29;20105;-29
2022/03/27 02:20:22;;;;;;;43.43;26.70;;;16.10;72.30;;;;;;5049989;29;20045;-30
2022/03/27 02:22:54;;;;;;;38.83;25.40;;;16.20;72.20;;;;;;5049232;29;20529;-29
2022/03/27 02:25:25;;;;;;;29.13;19.60;;;16.20;72.20;;;;;;5048924;29;20053;-29
2022/03/27 02:27:57;;;;;;;27.53;17.70;;;16.10;72.10;;;;;;5049477;29;20045;-28
2022/03/27 02:30:28;;;;;;;24.00;16.13;;;16.10;71.90;;;;;;5049889;29;20049;-30
2022/03/27 02:32:59;;;;;;;25.43;17.33;;;16.10;72.00;;;;;;5048961;29;20053;-28
2022/03/27 02:35:29;;;;;;;27.07;18.70;;;16.10;71.90;;;;;;5048473;29;20049;-29
2022/03/27 02:38:04;;;;;;;27.13;19.40;;;16.10;71.90;;;;;;5048017;29;20456;-30
2022/03/27 02:40:36;;;;;;;29.10;19.23;;;16.10;71.80;;;;;;5049222;29;20049;-30
2022/03/27 02:43:09;;;;;;;34.03;22.50;;;16.10;71.70;;;;;;5047902;29;20097;-29
2022/03/27 02:45:40;;;;;;;31.50;20.52;;;16.10;71.80;;;;;;5049078;29;20049;-29
2022/03/27 02:48:12;;;;;;;31.53;20.10;;;16.10;71.80;;;;;;5049009;29;20045;-30
2022/03/27 02:50:43;;;;;;;33.50;23.20;;;16.10;71.80;;;;;;5048880;29;20065;-29
2022/03/27 02:53:15;;;;;;;39.23;25.50;;;16.10;71.70;;;;;;5048947;29;20084;-30
2022/03/27 02:55:45;;;;;;;36.80;24.47;;;16.10;71.80;;;;;;5048684;29;20490;-29
2022/03/27 02:58:17;;;;;;;31.53;21.43;;;16.10;72.10;;;;;;5049102;29;20485;-29
2022/03/27 03:00:48;;;;;;;29.97;19.93;;;16.10;72.00;;;;;;5047822;29;20132;-29
2022/03/27 03:03:19;;;;;;;25.97;18.13;;;16.10;72.10;;;;;;5047532;29;20048;-29
2022/03/27 03:05:50;;;;;;;28.10;18.70;;;16.10;72.10;;;;;;5048727;29;20053;-30
2022/03/27 03:08:21;;;;;;;32.87;21.60;;;16.10;72.10;;;;;;5047337;29;20049;-29
2022/03/27 03:10:52;;;;;;;25.20;17.00;;;16.00;71.90;;;;;;5048788;29;20041;-27
2022/03/27 03:13:23;;;;;;;24.50;16.83;;;16.00;71.70;;;;;;5048563;29;20089;-29
2022/03/27 03:15:54;;;;;;;23.00;16.17;;;16.00;72.30;;;;;;5048585;29;20498;-31
2022/03/27 03:18:26;;;;;;;25.03;17.23;;;16.10;72.30;;;;;;5048580;29;20065;-28
2022/03/27 03:20:56;;;;;;;24.77;17.83;;;16.00;72.20;;;;;;5048365;29;20052;-29
2022/03/27 03:23:28;;;;;;;33.37;19.57;;;16.10;72.40;;;;;;5047824;29;20089;-28
2022/03/27 03:26:00;;;;;;;41.53;24.83;;;16.00;72.40;;;;;;5048335;29;20470;-31
2022/03/27 03:28:31;;;;;;;36.97;22.60;;;16.10;72.20;;;;;;5048859;29;20504;-28
2022/03/27 03:31:02;;;;;;;34.23;21.73;;;16.10;72.60;;;;;;5048251;29;20144;-30
2022/03/27 03:33:33;;;;;;;27.57;18.33;;;16.00;73.00;;;;;;5048039;29;20053;-30
2022/03/27 03:36:05;;;;;;;23.83;15.80;;;16.10;72.90;;;;;;5048318;29;20104;-29
2022/03/27 03:38:36;;;;;;;23.77;15.43;;;16.00;72.60;;;;;;5048135;29;20053;-29
2022/03/27 03:41:08;;;;;;;23.93;16.30;;;16.00;72.80;;;;;;5029685;29;20057;-31
2022/03/27 03:43:39;;;;;;;22.97;15.70;;;16.00;72.50;;;;;;5046510;29;20041;-29
2022/03/27 03:46:11;;;;;;;28.23;19.17;;;16.00;72.50;;;;;;5047894;29;20053;-28
2022/03/27 03:48:42;;;;;;;28.73;17.70;;;16.00;72.40;;;;;;5047766;29;20057;-30
2022/03/27 03:51:13;;;;;;;24.20;17.07;;;16.00;72.60;;;;;;5047748;29;20049;-28
2022/03/27 03:53:44;;;;;;;22.60;16.80;;;16.00;72.90;;;;;;5031669;29;20470;-29
2022/03/27 03:56:15;;;;;;;20.20;15.20;;;16.00;72.60;;;;;;5031483;29;20077;-28
2022/03/27 03:59:04;;;;;;;18.20;12.83;;;16.00;73.20;;;;;;5047966;29;20458;-28
2022/03/27 04:01:35;;;;;;;15.93;10.57;;;16.00;73.00;;;;;;5048169;29;20101;-30
2022/03/27 04:04:06;;;;;;;13.60;9.50;;;16.00;72.80;;;;;;5050785;29;20137;-29
2022/03/27 04:06:37;;;;;;;13.20;9.43;;;16.00;73.20;;;;;;5051984;29;20459;-29
2022/03/27 04:09:08;;;;;;;13.67;8.60;;;16.00;72.70;;;;;;5050616;29;20072;-29
2022/03/27 04:11:50;;;;;;;11.77;8.33;;;16.00;72.70;;;;;;5034281;29;20139;-29
2022/03/27 04:14:21;;;;;;;11.37;7.40;;;16.00;72.60;;;;;;5051647;29;20101;-29
2022/03/27 04:16:52;;;;;;;12.80;8.27;;;16.00;72.50;;;;;;5050065;29;20053;-28
2022/03/27 04:19:24;;;;;;;13.67;9.13;;;16.00;72.70;;;;;;5051612;29;20061;-28
2022/03/27 04:21:55;;;;;;;15.75;10.20;;;16.00;72.50;;;;;;5051799;29;20104;-29
2022/03/27 04:24:26;;;;;;;17.03;10.43;;;16.00;72.50;;;;;;5051238;29;20057;-30
2022/03/27 04:26:57;;;;;;;16.07;9.60;;;16.00;72.60;;;;;;5050351;29;20109;-28
2022/03/27 04:29:28;;;;;;;15.70;9.53;;;16.00;72.20;;;;;;5051517;29;20049;-29
2022/03/27 04:31:59;;;;;;;14.50;8.63;;;16.00;72.30;;;;;;5051434;29;20049;-30
2022/03/27 04:34:30;;;;;;;13.73;8.97;;;16.00;72.30;;;;;;5050256;29;20060;-28
2022/03/27 04:37:03;;;;;;;14.30;9.33;;;15.90;72.30;;;;;;5051425;29;20041;-29
2022/03/27 04:39:34;;;;;;;15.85;9.02;;;15.90;72.30;;;;;;5051599;29;20116;-28
2022/03/27 04:42:09;;;;;;;15.33;10.13;;;16.00;72.20;;;;;;5051781;29;20053;-29
2022/03/27 04:44:40;;;;;;;16.73;9.80;;;16.00;72.40;;;;;;5050985;29;20410;-29
2022/03/27 04:47:11;;;;;;;13.90;9.37;;;16.00;72.90;;;;;;5034501;29;20076;-29
2022/03/27 04:49:42;;;;;;;16.43;10.93;;;16.00;73.00;;;;;;5049697;29;20053;-30
2022/03/27 04:52:13;;;;;;;17.63;12.70;;;16.00;73.10;;;;;;5051233;29;20564;-29
2022/03/27 04:54:45;;;;;;;21.93;15.73;;;15.90;72.90;;;;;;5050904;29;20049;-29
2022/03/27 04:57:17;;;;;;;23.60;16.03;;;15.90;73.10;;;;;;5051163;29;20057;-29
2022/03/27 04:59:48;;;;;;;18.30;13.70;;;16.00;72.90;;;;;;5050992;29;20384;-30
2022/03/27 05:02:19;;;;;;;16.17;12.77;;;16.00;73.00;;;;;;5049782;29;20555;-29
2022/03/27 05:04:50;;;;;;;16.60;11.10;;;15.90;72.80;;;;;;5049509;29;20053;-29
2022/03/27 05:07:22;;;;;;;15.17;10.40;;;15.90;73.20;;;;;;5049535;29;20045;-28
2022/03/27 05:09:53;;;;;;;13.00;9.03;;;15.90;73.10;;;;;;5051328;29;20506;-29
2022/03/27 05:12:24;;;;;;;14.27;8.40;;;16.00;73.10;;;;;;5051028;29;20440;-28
2022/03/27 05:14:55;;;;;;;12.10;7.80;;;15.90;73.00;;;;;;5049462;29;20049;-29
2022/03/27 05:17:26;;;;;;;11.23;7.87;;;15.90;73.00;;;;;;5050445;29;20392;-29
2022/03/27 05:19:57;;;;;;;12.43;7.87;;;15.90;73.40;;;;;;5049716;29;20121;-30
2022/03/27 05:22:29;;;;;;;11.93;8.10;;;15.90;73.30;;;;;;5049570;29;20041;-29
2022/03/27 05:25:00;;;;;;;10.97;7.10;;;15.90;73.30;;;;;;5050444;29;20060;-28
2022/03/27 05:27:31;;;;;;;11.97;8.27;;;15.90;73.50;;;;;;5050489;29;20045;-29
2022/03/27 05:30:02;;;;;;;11.80;8.63;;;15.90;73.30;;;;;;5049022;29;20060;-31
2022/03/27 05:32:33;;;;;;;12.23;8.40;;;15.90;73.50;;;;;;5050582;29;20044;-28
2022/03/27 05:35:04;;;;;;;12.03;7.63;;;15.90;73.30;;;;;;5050335;29;20053;-28
2022/03/27 05:37:39;;;;;;;12.73;9.60;;;15.90;73.20;;;;;;5049247;29;20077;-28
2022/03/27 05:40:12;;;;;;;13.80;8.97;;;15.90;73.20;;;;;;5049419;29;20104;-30
2022/03/27 05:42:43;;;;;;;14.32;9.52;;;16.00;73.10;;;;;;5048214;29;20491;-28
2022/03/27 05:45:14;;;;;;;17.50;11.77;;;15.90;73.00;;;;;;5063541;29;20053;-29
2022/03/27 05:47:45;;;;;;;16.63;12.77;;;15.90;76.10;;;;;;5068250;29;20127;-29
2022/03/27 05:50:18;;;;;;;20.17;13.17;;;16.00;71.40;;;;;;5063411;29;20143;-31
2022/03/27 05:52:52;;;;;;;18.20;12.37;;;15.90;67.80;;;;;;5065440;29;20056;-29
2022/03/27 05:55:26;;;;;;;16.73;11.60;;;15.90;64.30;;;;;;5067364;29;20052;-28
2022/03/27 05:58:01;;;;;;;17.97;11.90;;;15.90;63.90;;;;;;5066178;29;20128;-29
2022/03/27 06:00:33;;;;;;;16.37;11.60;;;15.90;64.10;;;;;;5066730;29;20546;-31
2022/03/27 06:03:04;;;;;;;16.87;11.43;;;15.90;64.20;;;;;;5066919;29;20065;-28
2022/03/27 06:05:35;;;;;;;17.33;12.63;;;15.90;64.30;;;;;;5066605;29;20136;-28
2022/03/27 06:08:07;;;;;;;18.20;13.33;;;15.80;64.20;;;;;;5065981;29;20060;-28
2022/03/27 06:10:39;;;;;;;16.23;13.07;;;15.30;64.20;;;;;;5017856;29;20135;-30
2022/03/27 06:13:10;;;;;;;17.03;12.43;;;14.80;64.70;;;;;;5066702;29;20562;-30
2022/03/27 06:15:41;;;;;;;16.30;12.07;;;14.50;65.40;;;;;;5066368;29;20055;-29
2022/03/27 06:18:12;;;;;;;15.67;11.53;;;14.20;65.30;;;;;;5066735;29;20068;-29
2022/03/27 06:20:43;;;;;;;18.33;13.70;;;14.10;65.90;;;;;;5065239;29;20080;-29
2022/03/27 06:23:14;;;;;;;16.97;13.43;;;13.90;66.30;;;;;;5065190;29;20079;-29
2022/03/27 06:25:45;;;;;;;18.63;13.83;;;13.90;66.50;;;;;;5064370;29;20159;-29
2022/03/27 06:28:16;;;;;;;18.97;14.87;;;13.80;66.70;;;;;;5066354;29;20403;-28
2022/03/27 06:30:47;;;;;;;20.77;14.77;;;13.70;66.90;;;;;;5066153;29;20052;-30
2022/03/27 06:33:18;;;;;;;17.20;13.40;;;13.60;67.50;;;;;;5066502;29;20108;-28
2022/03/27 06:35:49;;;;;;;20.00;13.93;;;13.60;67.90;;;;;;5066371;29;20040;-28
2022/03/27 06:38:21;;;;;;;18.50;13.43;;;13.70;67.90;;;;;;5066240;29;20048;-28
2022/03/27 06:40:51;;;;;;;17.47;13.63;;;13.70;68.10;;;;;;5049097;29;20048;-28
2022/03/27 06:43:22;;;;;;;18.60;13.20;;;13.70;68.20;;;;;;5065640;29;20119;-28
2022/03/27 06:45:53;;;;;;;17.43;13.07;;;13.70;68.40;;;;;;5065891;29;20052;-28
2022/03/27 06:48:24;;;;;;;15.50;11.63;;;13.70;68.50;;;;;;5065102;29;20440;-28
2022/03/27 06:50:55;;;;;;;15.50;11.67;;;13.70;68.20;;;;;;5065777;29;20139;-29
2022/03/27 06:53:26;;;;;;;15.07;11.70;;;13.70;67.80;;;;;;5065915;29;20073;-28
2022/03/27 06:55:57;;;;;;;15.03;10.80;;;13.60;68.10;;;;;;5066147;29;20068;-28
2022/03/27 06:58:29;;;;;;;16.57;11.13;;;13.70;68.60;;;;;;5065156;29;20088;-29
2022/03/27 07:03:50;;;;;;;15.80;11.30;;;13.70;68.40;;;;;;5064867;29;20052;-28
2022/03/27 07:06:21;;;;;;;15.63;11.90;;;13.80;68.60;;;;;;5065595;29;20455;-28
2022/03/27 07:08:53;;;;;;;16.77;12.03;;;13.80;68.90;;;;;;5065180;29;20048;-29
2022/03/27 07:11:24;;;;;;;14.63;10.53;;;13.80;69.30;;;;;;5064840;29;20057;-29
2022/03/27 07:13:58;;;;;;;15.57;11.63;;;13.80;69.00;;;;;;5065506;29;20084;-29
2022/03/27 07:16:32;;;;;;;13.03;9.83;;;13.80;69.40;;;;;;5057956;29;20147;-29
2022/03/27 07:19:04;;;;;;;14.70;10.00;;;13.80;69.50;;;;;;5058393;29;20075;-30
2022/03/27 07:21:37;;;;;;;12.15;8.70;;;13.90;70.10;;;;;;5065025;29;20045;-28
2022/03/27 07:24:09;;;;;;;12.60;8.55;;;13.80;69.70;;;;;;5065413;29;20051;-28
2022/03/27 07:26:41;;;;;;;12.03;8.53;;;13.80;70.40;;;;;;5064749;29;20051;-29
2022/03/27 07:29:13;;;;;;;12.35;9.07;;;13.80;70.70;;;;;;5062854;29;20047;-29
2022/03/27 07:31:44;;;;;;;12.60;8.87;;;13.80;70.60;;;;;;5065271;29;20052;-28
2022/03/27 07:34:16;;;;;;;9.67;7.73;;;13.70;69.60;;;;;;5065414;29;20076;-28
2022/03/27 07:36:47;;;;;;;10.47;7.80;;;13.70;70.20;;;;;;5065392;29;20470;-28
2022/03/27 07:39:21;;;;;;;9.83;7.43;;;13.80;70.70;;;;;;5064496;29;20071;-28
2022/03/27 07:41:52;;;;;;;8.37;6.17;;;13.80;70.70;;;;;;5058710;29;20049;-29
2022/03/27 07:44:23;;;;;;;8.53;6.00;;;13.90;70.30;;;;;;5064003;29;20411;-29
2022/03/27 07:46:58;;;;;;;10.00;6.10;;;14.00;70.60;;;;;;5065060;29;20048;-29
2022/03/27 07:49:30;;;;;;;9.03;6.27;;;14.00;70.60;;;;;;5065059;29;20052;-29
2022/03/27 07:52:00;;;;;;;8.80;6.30;;;14.00;69.90;;;;;;5060901;29;20058;-29
2022/03/27 07:54:32;;;;;;;8.83;5.53;;;14.00;69.80;;;;;;5065234;29;20083;-28
2022/03/27 07:57:03;;;;;;;8.90;6.23;;;14.10;69.60;;;;;;5065141;29;20056;-29
2022/03/27 07:59:35;;;;;;;8.73;5.73;;;14.30;69.20;;;;;;5065135;29;20061;-29
2022/03/27 08:02:07;;;;;;;8.87;6.07;;;14.50;68.90;;;;;;5065033;29;20063;-29
2022/03/27 08:04:38;;;;;;;9.25;5.97;;;14.70;68.60;;;;;;5063975;29;20509;-28
2022/03/27 08:07:09;;;;;;;8.53;5.43;;;14.90;68.40;;;;;;5065146;29;20049;-28
2022/03/27 08:09:41;;;;;;;9.00;5.30;;;15.00;68.10;;;;;;5064889;29;20131;-29
2022/03/27 08:12:12;;;;;;;7.77;4.60;;;15.10;67.70;;;;;;5065598;29;20131;-29
2022/03/27 08:15:12;;;;;;;4.43;2.50;;;15.20;67.50;;;;;;5064501;29;20472;-29
2022/03/27 08:17:43;;;;;;;4.30;1.97;;;15.30;67.10;;;;;;5064805;29;20131;-29
2022/03/27 08:20:14;;;;;;;3.37;1.57;;;15.40;66.70;;;;;;5063920;29;20045;-29
2022/03/27 08:22:45;;;;;;;4.70;2.20;;;15.50;66.30;;;;;;5064419;29;20053;-29
2022/03/27 08:28:07;;;;;;;3.33;1.77;;;15.60;65.70;;;;;;5086293;29;20055;-30
2022/03/27 08:30:39;;;;;;;2.08;1.25;;;15.70;65.40;;;;;;5086212;29;20114;-28
2022/03/27 08:33:10;;;;;;;3.50;1.83;;;15.80;65.10;;;;;;5086108;29;20462;-28
2022/03/27 08:35:41;;;;;;;3.23;1.80;;;15.80;64.90;;;;;;5086228;29;20044;-29
2022/03/27 08:38:13;;;;;;;3.73;1.90;;;15.80;64.90;;;;;;5086528;29;20048;-30
2022/03/27 08:40:45;;;;;;;4.27;2.20;;;15.80;64.80;;;;;;5070271;29;20041;-28
2022/03/27 08:43:16;;;;;;;3.50;1.90;;;15.80;64.80;;;;;;5065977;29;20044;-28
2022/03/27 08:45:47;;;;;;;3.80;1.80;;;15.90;65.20;;;;;;5034117;29;20068;-29
2022/03/27 08:48:19;;;;;;;3.63;1.83;;;15.90;64.40;;;;;;5075238;29;20124;-28
2022/03/27 08:50:52;;;;;;;4.33;1.90;;;15.90;64.20;;;;;;5052222;29;20040;-29
2022/03/27 08:53:29;;;;;;;3.50;1.70;;;15.90;64.00;;;;;;5069077;29;20041;-29
2022/03/27 08:56:03;;;;;;;4.10;2.30;;;16.00;63.80;;;;;;5052877;29;20064;-29
2022/03/27 08:58:38;;;;;;;5.27;3.27;;;16.00;63.70;;;;;;5068861;29;20064;-29
2022/03/27 09:01:11;;;;;;;5.30;3.90;;;16.00;63.60;;;;;;5069845;29;20064;-32
2022/03/27 09:03:42;;;;;;;4.20;2.90;;;16.00;63.70;;;;;;5053690;29;20076;-29
2022/03/27 09:06:13;;;;;;;4.47;2.70;;;16.10;63.80;;;;;;5052828;29;20048;-29
2022/03/27 09:08:44;;;;;;;3.83;2.28;;;16.10;68.80;;;;;;5068560;29;20040;-30
2022/03/27 09:11:16;;;;;;;7.93;4.60;;;16.10;72.30;;;;;;5052236;29;20596;-30
2022/03/27 09:13:49;;;;;;;5.60;4.43;;;16.20;75.30;;;;;;5052040;29;20056;-29
2022/03/27 09:16:20;;;;;;;5.63;3.58;;;16.30;73.80;;;;;;5052013;29;20117;-29
2022/03/27 09:18:53;;;;;;;4.87;3.57;;;16.30;72.70;;;;;;5052201;29;20041;-29
2022/03/27 09:21:27;;;;;;;4.88;2.95;;;16.40;74.30;;;;;;5068661;29;20045;-29
2022/03/27 09:23:59;;;;;;;3.57;2.20;;;16.40;73.60;;;;;;5065345;29;20124;-29
2022/03/27 09:26:32;;;;;;;4.22;1.92;;;16.40;73.70;;;;;;5068552;29;20084;-29
2022/03/27 09:29:08;;;;;;;3.83;1.90;;;16.50;74.00;;;;;;5052614;29;20049;-29
2022/03/27 09:31:39;;;;;;;3.33;2.20;;;16.60;72.80;;;;;;5052567;29;20044;-28
2022/03/27 09:34:10;;;;;;;9.10;3.88;;;16.60;70.50;;;;;;5069323;29;20113;-29
2022/03/27 09:36:42;;;;;;;3.22;2.00;;;16.70;69.60;;;;;;5052998;29;20052;-30
2022/03/27 09:39:20;;;;;;;2.70;1.30;;;16.90;69.30;;;;;;5069482;29;20075;-29
2022/03/27 09:41:58;;;;;;;2.53;1.50;;;17.00;70.90;;;;;;5052868;29;20045;-28
2022/03/27 09:44:29;;;;;;;4.20;2.20;;;17.00;77.30;;;;;;5069872;29;20454;-29
2022/03/27 09:47:07;;;;;;;4.00;2.58;;;16.90;82.50;;;;;;5069197;29;20055;-29
2022/03/27 09:49:40;;;;;;;3.45;2.17;;;16.80;84.20;;;;;;5069293;29;20049;-28
2022/03/27 09:52:19;;;;;;;3.80;2.30;;;16.80;81.50;;;;;;5052718;29;20406;-29
2022/03/27 09:54:57;;;;;;;3.70;1.80;;;16.80;78.80;;;;;;5069237;29;20056;-28
2022/03/27 09:57:35;;;;;;;2.97;1.25;;;16.80;92.50;;;;;;5052456;29;20379;-29
2022/03/27 10:00:14;;;;;;;1.75;1.00;;;16.80;91.10;;;;;;5068892;29;20052;-30
2022/03/27 10:03:18;;;;;;;1.98;0.95;;;16.70;84.70;;;;;;5052154;29;20403;-29
2022/03/27 10:05:53;;;;;;;2.53;1.00;;;16.70;81.40;;;;;;5069074;29;20060;-30
2022/03/27 10:08:24;;;;;;;2.40;1.15;;;16.70;90.20;;;;;;5052431;29;20052;-29
2022/03/27 10:10:58;;;;;;;1.55;0.75;;;16.70;84.50;;;;;;5069083;29;20055;-29
2022/03/27 10:13:29;;;;;;;2.28;1.15;;;16.70;84.20;;;;;;5052563;29;20079;-29
2022/03/27 10:16:02;;;;;;;2.97;1.38;;;16.70;83.80;;;;;;5052191;29;20120;-29
2022/03/27 10:18:33;;;;;;;2.45;1.10;;;16.70;82.60;;;;;;5068728;29;20491;-28
2022/03/27 10:21:04;;;;;;;2.38;1.17;;;16.70;83.10;;;;;;5052207;29;20048;-28
2022/03/27 10:23:35;;;;;;;2.90;1.30;;;16.70;89.90;;;;;;5051848;29;20056;-29
2022/03/27 10:26:06;;;;;;;2.30;1.13;;;16.10;60.50;;;;;;5067373;29;20083;-29
2022/03/27 10:28:38;;;;;;;3.70;2.87;;;15.50;59.80;;;;;;5052011;29;20048;-27
2022/03/27 10:31:08;;;;;;;2.00;0.97;;;15.00;60.70;;;;;;5052056;29;20048;-28
2022/03/27 10:33:40;;;;;;;3.90;1.90;;;14.70;60.30;;;;;;5051624;29;20502;-28
2022/03/27 10:36:45;;;;;;;1.77;1.13;;;14.50;61.10;;;;;;5051925;29;20056;-28
2022/03/27 10:39:25;;;;;;;2.30;1.30;;;14.30;60.50;;;;;;5035491;29;20101;-28
2022/03/27 10:42:20;;;;;;;2.73;1.70;;;14.10;61.80;;;;;;5015924;29;20059;-28
2022/03/27 10:45:00;;;;;;;2.63;1.20;;;14.00;61.90;;;;;;5047219;29;20491;-28
2022/03/27 10:47:31;;;;;;;3.03;1.60;;;14.00;62.60;;;;;;5031488;29;20049;-28
2022/03/27 10:50:02;;;;;;;3.17;1.50;;;13.90;61.50;;;;;;5046860;29;20079;-28
2022/03/27 10:52:36;;;;;;;2.60;1.30;;;13.90;62.30;;;;;;5031362;29;20053;-29
2022/03/27 10:55:12;;;;;;;3.00;1.53;;;13.80;62.00;;;;;;5046678;29;20087;-28
2022/03/27 10:57:45;;;;;;;3.70;1.83;;;13.80;62.10;;;;;;5046708;29;20049;-28
2022/03/27 11:00:37;;;;;;;3.53;1.63;;;13.70;61.60;;;;;;5046772;29;20051;-28
2022/03/27 11:03:08;;;;;;;2.07;1.40;;;13.70;61.40;;;;;;5046595;29;20167;-28
2022/03/27 11:05:40;;;;;;;2.80;1.87;;;13.70;60.70;;;;;;5046551;29;20064;-28
2022/03/27 11:08:17;;;;;;;2.67;1.40;;;13.70;62.50;;;;;;5046816;29;20075;-28
2022/03/27 11:10:55;;;;;;;2.70;1.87;;;13.70;61.50;;;;;;5031085;29;20068;-28
2022/03/27 11:13:28;;;;;;;3.53;2.60;;;13.60;62.80;;;;;;5031218;29;20068;-28
2022/03/27 11:16:15;;;;;;;3.83;1.67;;;13.60;61.50;;;;;;5067171;29;20056;-29
2022/03/27 11:18:48;;;;;;;4.13;1.83;;;13.60;61.80;;;;;;5051395;29;20148;-29
2022/03/27 11:21:26;;;;;;;;;;;13.60;61.90;;;;;;5051607;29;20129;-29
2022/03/27 11:24:03;;;;;;;2.50;1.57;;;13.60;61.50;;;;;;5067628;29;19923;-28
2022/03/27 11:26:35;;;;;;;3.93;2.07;;;13.60;62.00;;;;;;5067665;29;20137;-28
2022/03/27 11:29:24;;;;;;;2.37;1.43;;;13.50;61.70;;;;;;5068184;29;20104;-28
2022/03/27 11:32:08;;;;;;;2.63;1.60;;;13.50;62.00;;;;;;5067744;29;20499;-28
2022/03/27 11:34:40;;;;;;;4.22;2.10;;;13.50;62.80;;;;;;5050964;29;20052;-28
2022/03/27 11:37:13;;;;;;;1.97;1.37;;;13.50;62.50;;;;;;5067621;29;20057;-28
2022/03/27 11:39:44;;;;;;;4.13;2.38;;;13.50;62.60;;;;;;5067920;29;20542;-28
2022/03/27 11:42:24;;;;;;;2.87;1.60;;;13.50;63.90;;;;;;5050598;29;20052;-28
2022/03/27 11:45:08;;;;;;;2.73;2.00;;;13.50;62.80;;;;;;5066840;29;20053;-28
2022/03/27 11:47:43;;;;;;;3.13;1.60;;;13.50;63.70;;;;;;5067450;29;20061;-29
2022/03/27 11:50:32;;;;;;;2.20;1.10;;;13.40;62.80;;;;;;5067461;29;20056;-28
2022/03/27 11:53:03;;;;;;;2.53;1.13;;;13.40;62.60;;;;;;5066374;29;20076;-28
2022/03/27 11:55:35;;;;;;;1.80;0.90;;;13.40;61.90;;;;;;5066179;29;20048;-29
2022/03/27 11:58:10;;;;;;;1.80;1.10;;;13.40;62.10;;;;;;5067177;29;20055;-29
2022/03/27 12:00:42;;;;;;;2.10;1.10;;;13.40;63.00;;;;;;5066913;29;20143;-28
2022/03/27 12:03:21;;;;;;;1.57;1.10;;;13.40;63.90;;;;;;5067072;29;20053;-28
2022/03/27 12:05:54;;;;;;;1.60;1.10;;;13.40;62.80;;;;;;5067332;29;20048;-30
2022/03/27 12:08:38;;;;;;;2.37;1.30;;;13.40;63.10;;;;;;5067422;29;20049;-29
2022/03/27 12:11:09;;;;;;;8.73;5.23;;;13.50;62.90;;;;;;5051589;29;20055;-30
2022/03/27 12:13:42;;;;;;;2.17;1.40;;;13.50;63.00;;;;;;5049468;29;20041;-28
2022/03/27 12:16:17;;;;;;;10.75;6.95;;;13.60;63.90;;;;;;5050248;29;20069;-28
2022/03/27 12:18:49;;;;;;;11.40;6.80;;;13.60;62.90;;;;;;5067054;29;20052;-28
2022/03/27 12:21:22;;;;;;;14.23;7.63;;;13.80;62.50;;;;;;5050386;29;20044;-29
2022/03/27 12:24:02;;;;;;;12.70;8.48;;;14.00;63.50;;;;;;5050826;29;20052;-30
2022/03/27 12:29:40;;;;;;;;;;;14.50;61.90;;;;;;5071116;29;20047;-30
2022/03/27 12:32:13;;;;;;;11.32;7.22;;;14.70;64.50;;;;;;5070813;29;20412;-29
2022/03/27 12:34:49;;;;;;;10.05;6.20;;;14.90;63.70;;;;;;5070091;29;20052;-29
2022/03/27 12:37:21;;;;;;;7.83;4.53;;;15.20;62.10;;;;;;5068569;29;20049;-29
2022/03/27 12:39:52;;;;;;;7.28;3.50;;;15.30;60.90;;;;;;5069345;29;20053;-29
2022/03/27 12:42:30;;;;;;;4.73;2.40;;;15.40;61.00;;;;;;5069806;29;20048;-29
2022/03/27 12:45:07;;;;;;;4.60;2.70;;;15.40;60.90;;;;;;5069543;29;20104;-29
2022/03/27 12:47:58;;;;;;;5.73;3.60;;;15.50;61.30;;;;;;5069152;29;20497;-28
2022/03/27 12:50:36;;;;;;;5.47;3.27;;;15.60;65.80;;;;;;5056214;29;20060;-29
2022/03/27 12:53:12;;;;;;;4.67;2.17;;;15.70;62.80;;;;;;5069614;29;20076;-28
2022/03/27 12:55:51;;;;;;;3.30;1.60;;;15.80;61.40;;;;;;5054481;29;20083;-28
2022/03/27 12:58:40;;;;;;;3.43;1.70;;;15.80;61.00;;;;;;5053199;29;20479;-29
2022/03/27 13:01:18;;;;;;;3.10;1.57;;;15.90;60.70;;;;;;5070290;29;20113;-29
2022/03/27 13:04:08;;;;;;;3.27;1.87;;;15.90;61.40;;;;;;5068676;29;20136;-28
2022/03/27 13:06:44;;;;;;;2.88;1.40;;;16.00;62.50;;;;;;5068103;29;20088;-30
2022/03/27 13:09:22;;;;;;;2.57;1.50;;;16.10;62.00;;;;;;5051903;29;20115;-29
2022/03/27 13:11:54;;;;;;;1.95;1.10;;;16.10;61.80;;;;;;5050214;29;20057;-29
2022/03/27 13:14:27;;;;;;;3.20;1.30;;;16.20;62.90;;;;;;5068177;29;20060;-30